Time;durP1;ratioP1;P1;durP2;ratioP2;P2;SDS_P1;SDS_P2;PMS_P1;PMS_P2;Temp;Humidity;BMP_temperature;BMP_pressure;BME280_temperature;BME280_humidity;BME280_pressure;Samples;Min_cycle;Max_cycle;Signal;HPM_P1;HPM_P2
2022/03/09 05:12:11;;;;;;;;;;;;;;;4.07;67.40;97454.56;4258232;27;10405;-78
2022/03/09 05:14:13;;;;;;;;;;;;;;;4.14;67.57;97456.66;4234283;28;5691;-78
2022/03/09 05:16:14;;;;;;;;;;;;;;;4.16;67.42;97459.97;4234142;27;6389;-77
2022/03/09 05:18:16;;;;;;;;;;;;;;;4.17;67.55;97465.06;4221188;28;5799;-78
2022/03/09 05:20:20;;;;;;;;;;;;;;;4.07;68.48;97462.44;4224521;27;5763;-78
2022/03/09 05:22:22;;;;;;;;;;;;;;;4.05;68.69;97456.50;4218203;28;5716;-78
2022/03/09 05:24:26;;;;;;;;;;;;;;;4.17;67.32;97461.63;4232711;28;5659;-78
2022/03/09 05:26:28;;;;;;;;;;;;;;;4.22;67.05;97462.03;4229100;28;5827;-78
2022/03/09 05:28:29;;;;;;;;;;;;;;;4.25;66.89;97465.22;4235340;27;5736;-78
2022/03/09 05:30:31;;;;;;;;;;;;;;;4.26;66.78;97466.84;4247146;27;5657;-78
2022/03/09 05:32:33;;;;;;;;;;;;;;;4.30;66.67;97472.63;4229757;28;5671;-77
2022/03/09 05:34:34;;;;;;;;;;;;;;;4.32;66.74;97471.56;4229063;28;5664;-78
2022/03/09 05:36:36;;;;;;;;;;;;;;;4.36;66.63;97472.09;4220405;28;5780;-79
2022/03/09 05:38:38;;;;;;;;;;;;;;;4.38;66.66;97478.03;4232439;28;5672;-78
2022/03/09 05:40:40;;;;;;;;;;;;;;;4.35;66.85;97473.91;4221739;28;5692;-78
2022/03/09 05:42:45;;;;;;;;;;;;;;;4.39;66.61;97477.06;4216660;28;5700;-78
2022/03/09 05:44:53;;;;;;;;;;;;;;;4.37;66.54;97479.00;4219924;28;5701;-78
2022/03/09 05:47:14;;;;;;;;;;;;;;;4.36;66.39;97478.16;4224190;28;5808;-77
2022/03/09 05:49:17;;;;;;;;;;;;;;;4.37;66.30;97477.19;4215355;28;5724;-76
2022/03/09 05:51:18;;;;;;;;;;;;;;;4.37;66.25;97481.59;4213940;28;6564;-77
2022/03/09 05:53:20;;;;;;;;;;;;;;;4.34;66.20;97479.28;4214202;28;5700;-77
2022/03/09 05:55:22;;;;;;;;;;;;;;;4.30;66.19;97475.25;4214645;28;5711;-78
2022/03/09 05:57:23;;;;;;;;;;;;;;;4.31;65.99;97476.94;4222277;28;5695;-78
2022/03/09 05:59:25;;;;;;;;;;;;;;;4.29;66.02;97470.97;4219089;28;5685;-78
2022/03/09 06:01:27;;;;;;;;;;;;;;;4.26;65.89;97473.88;4227304;28;5854;-78
2022/03/09 06:03:29;;;;;;;;;;;;;;;4.25;66.01;97475.69;4225455;28;5758;-78
2022/03/09 06:05:30;;;;;;;;;;;;;;;4.26;65.75;97479.94;4221492;28;5696;-78
2022/03/09 06:07:32;;;;;;;;;;;;;;;4.26;65.74;97476.50;4227384;28;5632;-78
2022/03/09 06:09:35;;;;;;;;;;;;;;;4.28;65.79;97482.41;4230724;28;5830;-77
2022/03/09 06:11:37;;;;;;;;;;;;;;;4.32;65.77;97489.88;4228914;27;5650;-78
2022/03/09 06:13:39;;;;;;;;;;;;;;;4.31;65.88;97476.94;4216766;28;5782;-77
2022/03/09 06:15:41;;;;;;;;;;;;;;;4.31;65.75;97487.41;4207140;28;5694;-78
2022/03/09 06:17:48;;;;;;;;;;;;;;;4.33;65.83;97485.47;4207970;28;5716;-77
2022/03/09 06:19:49;;;;;;;;;;;;;;;4.36;65.74;97479.97;4211769;28;5678;-78
2022/03/09 06:21:51;;;;;;;;;;;;;;;4.35;65.67;97484.38;4210417;28;5692;-78
2022/03/09 06:23:53;;;;;;;;;;;;;;;4.34;65.90;97494.97;4202567;28;5708;-78
2022/03/09 06:25:54;;;;;;;;;;;;;;;4.35;66.02;97484.38;4202485;28;5788;-78
2022/03/09 06:27:56;;;;;;;;;;;;;;;4.36;66.12;97485.19;4203918;28;5688;-79
2022/03/09 06:30:01;;;;;;;;;;;;;;;4.36;66.30;97487.81;4201857;28;6417;-79
2022/03/09 06:32:04;;;;;;;;;;;;;;;4.35;66.43;97478.31;4218957;28;6357;-78
2022/03/09 06:34:05;;;;;;;;;;;;;;;4.35;66.87;97488.78;4217830;28;5615;-78
2022/03/09 06:36:08;;;;;;;;;;;;;;;4.36;66.95;97487.81;4219570;28;5679;-78
2022/03/09 06:38:11;;;;;;;;;;;;;;;4.36;67.20;97485.19;4219161;28;5709;-78
2022/03/09 06:40:13;;;;;;;;;;;;;;;4.36;67.67;97491.25;4215666;28;5704;-79
2022/03/09 06:42:14;;;;;;;;;;;;;;;4.35;67.81;97501.88;4228304;28;5682;-78
2022/03/09 06:44:17;;;;;;;;;;;;;;;4.30;68.28;97493.56;4235587;28;5646;-78
2022/03/09 06:46:19;;;;;;;;;;;;;;;4.24;68.83;97499.38;4225660;28;5758;-77
2022/03/09 06:48:21;;;;;;;;;;;;;;;4.23;68.94;97503.78;4235365;28;5649;-77
2022/03/09 06:50:22;;;;;;;;;;;;;;;4.22;69.04;97502.13;4235099;28;5657;-78
2022/03/09 06:52:24;;;;;;;;;;;;;;;4.22;69.40;97504.75;4235263;28;5742;-77
2022/03/09 06:54:27;;;;;;;;;;;;;;;4.23;69.40;97505.56;4235172;28;5650;-77
2022/03/09 06:56:29;;;;;;;;;;;;;;;4.23;69.85;97511.63;4235338;28;5796;-78
2022/03/09 06:58:30;;;;;;;;;;;;;;;4.26;69.72;97508.75;4230686;28;5684;-78
2022/03/09 07:00:32;;;;;;;;;;;;;;;4.27;70.33;97506.94;4218133;28;5911;-78
2022/03/09 07:02:34;;;;;;;;;;;;;;;4.26;71.00;97513.97;4218009;28;5840;-78
2022/03/09 07:04:36;;;;;;;;;;;;;;;4.25;71.19;97516.72;4217915;28;5679;-79
2022/03/09 07:06:38;;;;;;;;;;;;;;;4.26;70.75;97518.38;4218200;28;5687;-78
2022/03/09 07:08:39;;;;;;;;;;;;;;;4.26;71.17;97518.38;4218470;28;5791;-78
2022/03/09 07:10:41;;;;;;;;;;;;;;;4.27;71.01;97522.66;4212163;28;5876;-78
2022/03/09 07:12:45;;;;;;;;;;;;;;;4.19;71.77;97525.97;4219111;28;5810;-79
2022/03/09 07:14:47;;;;;;;;;;;;;;;4.04;73.06;97533.34;4217967;28;5671;-78
2022/03/09 07:16:49;;;;;;;;;;;;;;;4.08;71.88;97528.69;4217831;28;5781;-78
2022/03/09 07:18:51;;;;;;;;;;;;;;;4.17;71.50;97532.28;4218280;28;5761;-78
2022/03/09 07:20:52;;;;;;;;;;;;;;;4.30;70.89;97538.06;4217785;28;6357;-77
2022/03/09 07:22:54;;;;;;;;;;;;;;;4.32;70.51;97544.03;4218046;28;5773;-77
2022/03/09 07:24:56;;;;;;;;;;;;;;;4.33;70.31;97537.81;4217011;28;5663;-77
2022/03/09 07:26:58;;;;;;;;;;;;;;;4.26;70.44;97541.94;4218011;28;5061;-77
2022/03/09 07:28:59;;;;;;;;;;;;;;;4.36;70.53;97542.78;4217929;28;5687;-78
2022/03/09 07:31:01;;;;;;;;;;;;;;;4.34;70.11;97542.09;4217340;28;5695;-78
2022/03/09 07:33:03;;;;;;;;;;;;;;;4.37;69.37;97545.25;4217561;28;5699;-78
2022/03/09 07:35:06;;;;;;;;;;;;;;;4.36;69.26;97537.53;4217882;28;5843;-78
2022/03/09 07:37:08;;;;;;;;;;;;;;;4.35;68.31;97547.19;4217888;28;5682;-79
2022/03/09 07:39:10;;;;;;;;;;;;;;;4.29;68.06;97539.88;4217760;28;5759;-79
2022/03/09 07:41:15;;;;;;;;;;;;;;;4.07;69.35;97543.53;4206100;28;5688;-78
2022/03/09 07:43:16;;;;;;;;;;;;;;;4.07;69.20;97546.16;4200743;28;5692;-79
2022/03/09 07:45:19;;;;;;;;;;;;;;;4.31;68.36;97539.75;4201124;28;5709;-78
2022/03/09 07:47:21;;;;;;;;;;;;;;;4.25;68.64;97548.13;4200571;28;5716;-78
2022/03/09 07:49:23;;;;;;;;;;;;;;;4.19;69.17;97551.28;4200923;28;5782;-78
2022/03/09 07:51:25;;;;;;;;;;;;;;;4.45;68.59;97549.81;4200725;28;5696;-78
2022/03/09 07:53:26;;;;;;;;;;;;;;;4.46;68.77;97548.84;4200400;28;6382;-79
2022/03/09 07:55:28;;;;;;;;;;;;;;;4.58;68.05;97542.53;4200635;28;5787;-76
2022/03/09 07:57:30;;;;;;;;;;;;;;;4.64;67.23;97546.38;4200577;28;5700;-77
2022/03/09 07:59:32;;;;;;;;;;;;;;;4.54;66.98;97546.41;4200384;28;5716;-77
2022/03/09 08:01:34;;;;;;;;;;;;;;;4.50;67.61;97549.41;4199698;28;5696;-76
2022/03/09 08:03:36;;;;;;;;;;;;;;;4.47;67.66;97540.03;4200529;28;5763;-76
2022/03/09 08:05:40;;;;;;;;;;;;;;;4.22;68.18;97540.56;4200527;28;5704;-77
2022/03/09 08:07:42;;;;;;;;;;;;;;;4.22;67.99;97551.84;4200237;28;5681;-76
2022/03/09 08:09:44;;;;;;;;;;;;;;;4.46;67.20;97548.84;4200212;28;5779;-76
2022/03/09 08:11:46;;;;;;;;;;;;;;;4.62;67.00;97543.06;4209297;28;5643;-76
2022/03/09 08:13:48;;;;;;;;;;;;;;;4.59;67.19;97553.81;4206866;28;5700;-77
2022/03/09 08:15:50;;;;;;;;;;;;;;;4.73;66.90;97548.16;4200222;28;6432;-77
2022/03/09 08:17:52;;;;;;;;;;;;;;;4.75;66.46;97545.41;4203119;28;5663;-76
2022/03/09 08:19:54;;;;;;;;;;;;;;;4.75;66.88;97548.03;4216207;28;5675;-77
2022/03/09 08:21:56;;;;;;;;;;;;;;;4.87;66.57;97549.53;4199906;28;5947;-77
2022/03/09 08:23:58;;;;;;;;;;;;;;;4.91;66.35;97545.69;4199966;28;7036;-77
2022/03/09 08:26:00;;;;;;;;;;;;;;;4.95;66.28;97555.75;4199438;28;5712;-78
2022/03/09 08:28:03;;;;;;;;;;;;;;;4.80;66.64;97557.13;4199631;28;5722;-77
2022/03/09 08:30:05;;;;;;;;;;;;;;;4.82;66.82;97565.69;4199603;28;5782;-78
2022/03/09 08:32:07;;;;;;;;;;;;;;;4.80;66.99;97558.94;4199268;28;5692;-78
2022/03/09 08:34:09;;;;;;;;;;;;;;;4.95;66.47;97570.63;4199768;28;5835;-78
2022/03/09 08:36:11;;;;;;;;;;;;;;;4.77;67.42;97561.84;4199818;28;5693;-78
2022/03/09 08:38:13;;;;;;;;;;;;;;;4.62;67.91;97575.31;4199947;28;5786;-78
2022/03/09 08:40:15;;;;;;;;;;;;;;;4.61;68.31;97570.22;4200098;28;5855;-78
2022/03/09 08:42:17;;;;;;;;;;;;;;;4.77;67.72;97577.56;4200322;28;5750;-73
2022/03/09 08:44:20;;;;;;;;;;;;;;;4.62;68.50;97569.25;4203800;28;6713;-70
2022/03/09 08:46:22;;;;;;;;;;;;;;;4.86;67.33;97574.09;4218019;28;5679;-71
2022/03/09 08:48:26;;;;;;;;;;;;;;;4.82;67.24;97580.56;4217090;28;5679;-75
2022/03/09 08:50:27;;;;;;;;;;;;;;;4.63;68.24;97576.97;4211308;28;5654;-78
2022/03/09 08:52:37;;;;;;;;;;;;;;;4.59;68.80;97580.84;4221589;28;5682;-74
2022/03/09 08:54:42;;;;;;;;;;;;;;;4.60;68.48;97584.28;4207808;28;5819;-76
2022/03/09 08:56:44;;;;;;;;;;;;;;;4.67;67.43;97585.41;4202316;28;5858;-72
2022/03/09 08:58:46;;;;;;;;;;;;;;;4.80;67.48;97582.50;4202636;28;5924;-70
2022/03/09 09:00:49;;;;;;;;;;;;;;;4.89;67.50;97576.44;4216685;28;5779;-74
2022/03/09 09:02:52;;;;;;;;;;;;;;;4.77;67.87;97580.19;4202404;28;5756;-70
2022/03/09 09:04:55;;;;;;;;;;;;;;;4.65;68.39;97580.31;4199596;28;5689;-73
2022/03/09 09:06:58;;;;;;;;;;;;;;;4.88;67.77;97577.41;4200287;28;5762;-72
2022/03/09 09:08:59;;;;;;;;;;;;;;;5.05;67.05;97581.94;4200986;28;5935;-76
2022/03/09 09:11:01;;;;;;;;;;;;;;;5.15;66.46;97567.03;4210220;28;5716;-79
2022/03/09 09:13:05;;;;;;;;;;;;;;;5.28;65.68;97566.72;4217286;28;5683;-84
2022/03/09 09:15:07;;;;;;;;;;;;;;;5.22;65.75;97562.91;4215408;28;5708;-81
2022/03/09 09:17:09;;;;;;;;;;;;;;;5.18;65.50;97569.38;4214777;28;5765;-81
2022/03/09 09:19:31;;;;;;;;;;;;;;;5.12;65.66;97564.72;4199715;28;5688;-75
2022/03/09 09:21:33;;;;;;;;;;;;;;;5.10;66.18;97568.44;4200975;28;5677;-74
2022/03/09 09:23:38;;;;;;;;;;;;;;;5.09;66.59;97564.13;4199083;28;5692;-69
2022/03/09 09:25:40;;;;;;;;;;;;;;;5.21;66.29;97563.03;4203522;28;5799;-72
2022/03/09 09:27:42;;;;;;;;;;;;;;;5.23;66.21;97561.94;4200078;28;5688;-72
2022/03/09 09:29:48;;;;;;;;;;;;;;;5.25;66.07;97557.38;4200178;28;5688;-73
2022/03/09 09:31:50;;;;;;;;;;;;;;;5.32;66.04;97562.03;4200030;28;5708;-79
2022/03/09 09:33:52;;;;;;;;;;;;;;;5.34;65.38;97560.13;4202409;28;5688;-73
2022/03/09 09:35:53;;;;;;;;;;;;;;;5.24;65.70;97558.34;4201077;28;5689;-79
2022/03/09 09:37:55;;;;;;;;;;;;;;;5.29;65.75;97554.44;4199657;28;5716;-73
2022/03/09 09:39:57;;;;;;;;;;;;;;;5.30;65.91;97556.94;4199882;28;5087;-84
2022/03/09 09:41:59;;;;;;;;;;;;;;;5.44;65.65;97564.38;4199647;28;5755;-73
2022/03/09 09:44:02;;;;;;;;;;;;;;;5.51;65.11;97557.56;4210311;28;5710;-76
2022/03/09 09:46:04;;;;;;;;;;;;;;;5.37;64.98;97565.06;4206138;28;5697;-75
2022/03/09 09:48:08;;;;;;;;;;;;;;;5.34;65.07;97560.94;4201501;28;5692;-76
2022/03/09 09:50:13;;;;;;;;;;;;;;;5.37;65.31;97554.59;4208753;28;5675;-74
2022/03/09 09:52:15;;;;;;;;;;;;;;;5.46;64.92;97556.34;4218836;28;6356;-72
2022/03/09 09:54:18;;;;;;;;;;;;;;;5.38;65.09;97548.38;4216337;28;5676;-77
2022/03/09 09:56:21;;;;;;;;;;;;;;;5.38;65.06;97553.59;4205213;28;5693;-74
2022/03/09 09:58:23;;;;;;;;;;;;;;;5.41;65.21;97558.56;4202387;28;5684;-71
2022/03/09 10:00:27;;;;;;;;;;;;;;;5.43;65.42;97554.00;4203908;28;5728;-72
2022/03/09 10:02:37;;;;;;;;;;;;;;;5.51;65.59;97559.38;4215645;28;5752;-74
2022/03/09 10:04:40;;;;;;;;;;;;;;;5.49;65.16;97562.13;4213188;28;5783;-72
2022/03/09 10:06:42;;;;;;;;;;;;;;;5.43;65.61;97559.25;4214380;28;5689;-71
2022/03/09 10:09:00;;;;;;;;;;;;;;;5.34;65.01;97560.94;4217774;28;5856;-73
2022/03/09 10:11:04;;;;;;;;;;;;;;;5.32;64.82;97552.38;4215829;28;5679;-71
2022/03/09 10:13:28;;;;;;;;;;;;;;;5.57;64.28;97550.13;4218330;28;6455;-74
2022/03/09 10:15:32;;;;;;;;;;;;;;;5.49;64.85;97556.06;4208420;28;5703;-76
2022/03/09 10:17:36;;;;;;;;;;;;;;;5.76;63.83;97555.28;4214762;28;5671;-74
2022/03/09 10:19:40;;;;;;;;;;;;;;;5.59;63.33;97554.25;4211027;28;5708;-76
2022/03/09 10:21:43;;;;;;;;;;;;;;;5.87;63.13;97551.63;4202957;28;5760;-74
2022/03/09 10:23:51;;;;;;;;;;;;;;;5.98;63.04;97548.84;4205530;28;5712;-72
2022/03/09 10:26:00;;;;;;;;;;;;;;;5.98;62.77;97548.84;4203342;28;5803;-73
2022/03/09 10:28:08;;;;;;;;;;;;;;;6.09;61.72;97543.41;4210166;28;6385;-70
2022/03/09 10:30:12;;;;;;;;;;;;;;;6.07;61.01;97542.72;4202451;28;5708;-69
2022/03/09 10:32:14;;;;;;;;;;;;;;;6.10;62.08;97539.81;4202415;28;5723;-80
2022/03/09 10:34:19;;;;;;;;;;;;;;;6.25;60.83;97540.16;4203231;28;6406;-79
2022/03/09 10:36:22;;;;;;;;;;;;;;;6.05;60.04;97535.00;4219015;28;5812;-69
2022/03/09 10:38:28;;;;;;;;;;;;;;;6.12;59.75;97543.13;4201985;28;5768;-72
2022/03/09 10:40:32;;;;;;;;;;;;;;;6.11;59.57;97538.81;4201546;28;5724;-73
2022/03/09 10:42:35;;;;;;;;;;;;;;;6.01;59.88;97541.53;4201769;28;5072;-72
2022/03/09 10:44:48;;;;;;;;;;;;;;;6.26;58.30;97542.63;4204568;28;5784;-80
2022/03/09 10:59:29;;;;;;;;;;;;;;;6.11;60.46;97534.41;4223955;27;10398;-77
2022/03/09 11:01:31;;;;;;;;;;;;;;;5.98;61.28;97533.94;4216230;28;5775;-79
2022/03/09 11:03:34;;;;;;;;;;;;;;;5.92;60.67;97531.91;4217719;28;6828;-69
2022/03/09 11:05:46;;;;;;;;;;;;;;;6.18;60.60;97526.78;4221071;28;5715;-69
2022/03/09 11:07:49;;;;;;;;;;;;;;;6.43;60.53;97531.31;4214312;28;5704;-69
2022/03/09 11:09:51;;;;;;;;;;;;;;;6.20;59.72;97527.44;4217770;27;6519;-69
2022/03/09 11:11:53;;;;;;;;;;;;;;;6.42;59.91;97532.28;4220072;28;5774;-69
2022/03/09 11:13:58;;;;;;;;;;;;;;;6.51;59.12;97530.56;4221594;28;5756;-69
2022/03/09 11:16:00;;;;;;;;;;;;;;;6.53;59.43;97533.88;4227371;28;5742;-69
2022/03/09 11:18:02;;;;;;;;;;;;;;;6.61;58.27;97520.00;4225178;27;6358;-68
2022/03/09 11:20:05;;;;;;;;;;;;;;;6.64;58.47;97522.31;4214523;28;5759;-71
2022/03/09 11:22:07;;;;;;;;;;;;;;;6.75;57.75;97511.56;4218077;28;6344;-70
2022/03/09 11:24:11;;;;;;;;;;;;;;;6.70;56.84;97511.22;4227957;28;5684;-70
2022/03/09 11:26:42;;;;;;;;;;;;;;;6.82;57.57;97507.38;4214105;28;5696;-70
2022/03/09 11:28:45;;;;;;;;;;;;;;;6.62;55.48;97511.94;4224255;28;5668;-71
2022/03/09 11:31:04;;;;;;;;;;;;;;;6.77;56.46;97509.59;4230175;28;5703;-68
2022/03/09 11:33:35;;;;;;;;;;;;;;;6.88;54.97;97503.28;4230943;28;5690;-69
2022/03/09 11:35:40;;;;;;;;;;;;;;;6.93;54.58;97498.41;4215587;28;5708;-68
2022/03/09 11:37:42;;;;;;;;;;;;;;;6.89;53.38;97497.06;4214180;28;5692;-68
2022/03/09 11:40:10;;;;;;;;;;;;;;;6.98;53.64;97491.69;4223169;28;5672;-69
2022/03/09 11:42:21;;;;;;;;;;;;;;;6.87;52.98;97496.38;4228900;28;5683;-69
2022/03/09 11:44:29;;;;;;;;;;;;;;;6.97;52.69;97490.06;4225515;28;5679;-69
2022/03/09 11:46:59;;;;;;;;;;;;;;;7.05;54.10;97491.94;4229949;27;5675;-70
2022/03/09 11:49:01;;;;;;;;;;;;;;;7.18;54.94;97491.50;4218541;28;5762;-69
2022/03/09 11:51:03;;;;;;;;;;;;;;;7.19;55.28;97478.22;4230735;28;6401;-69
2022/03/09 11:53:07;;;;;;;;;;;;;;;7.14;54.60;97485.75;4215577;28;5822;-69
2022/03/09 11:55:18;;;;;;;;;;;;;;;7.15;54.89;97491.84;4213884;28;5786;-69
2022/03/09 11:57:22;;;;;;;;;;;;;;;7.06;56.11;97487.50;4221370;28;6574;-69
2022/03/09 11:59:26;;;;;;;;;;;;;;;7.18;55.67;97481.00;4205203;28;5708;-69
2022/03/09 12:01:27;;;;;;;;;;;;;;;7.13;55.65;97480.63;4213040;28;5703;-77
2022/03/09 12:03:40;;;;;;;;;;;;;;;7.11;55.63;97475.50;4219351;28;5796;-73
2022/03/09 12:05:42;;;;;;;;;;;;;;;6.88;54.27;97477.00;4208828;28;5798;-71
2022/03/09 12:07:46;;;;;;;;;;;;;;;6.85;52.78;97480.78;4220002;28;5854;-78
2022/03/09 12:09:59;;;;;;;;;;;;;;;6.95;52.75;97476.25;4208336;28;5697;-76
2022/03/09 12:12:09;;;;;;;;;;;;;;;7.10;53.04;97475.69;4209500;28;5791;-76
2022/03/09 12:14:11;;;;;;;;;;;;;;;7.16;53.15;97472.44;4206417;28;5798;-77
2022/03/09 12:16:23;;;;;;;;;;;;;;;7.15;50.79;97466.34;4215339;28;5676;-78
2022/03/09 12:18:37;;;;;;;;;;;;;;;7.18;49.57;97470.47;4214004;28;6390;-77
2022/03/09 12:20:45;;;;;;;;;;;;;;;7.28;51.15;97465.94;4220955;28;5692;-80
2022/03/09 12:22:58;;;;;;;;;;;;;;;7.15;50.72;97469.00;4202944;28;5763;-81
2022/03/09 12:25:38;;;;;;;;;;;;;;;7.27;50.92;97464.28;4204338;28;5807;-79
2022/03/09 12:27:40;;;;;;;;;;;;;;;7.30;50.62;97462.16;4210469;28;5758;-74
2022/03/09 12:29:41;;;;;;;;;;;;;;;7.37;50.90;97467.63;4218032;28;5687;-79
2022/03/09 12:32:00;;;;;;;;;;;;;;;7.30;50.78;97459.53;4219063;28;5747;-78
2022/03/09 12:34:02;;;;;;;;;;;;;;;7.45;50.16;97462.41;4203814;28;6301;-78
2022/03/09 12:36:13;;;;;;;;;;;;;;;7.50;51.22;97461.94;4219374;28;5858;-80
2022/03/09 12:38:36;;;;;;;;;;;;;;;7.44;51.11;97467.81;4214134;28;5773;-76
2022/03/09 12:40:38;;;;;;;;;;;;;;;7.29;50.95;97457.88;4218668;28;5663;-75
2022/03/09 12:42:39;;;;;;;;;;;;;;;7.24;51.26;97459.31;4211988;28;5750;-66
2022/03/09 12:44:44;;;;;;;;;;;;;;;7.49;50.31;97458.50;4205149;28;5970;-68
2022/03/09 12:46:49;;;;;;;;;;;;;;;7.29;49.98;97457.06;4208080;28;6896;-66
2022/03/09 12:49:10;;;;;;;;;;;;;;;7.27;50.44;97456.41;4216663;28;5754;-75
2022/03/09 12:51:11;;;;;;;;;;;;;;;7.28;50.91;97458.03;4212365;28;5676;-74
2022/03/09 12:53:34;;;;;;;;;;;;;;;7.55;51.10;97459.66;4211860;28;6356;-72
2022/03/09 12:55:36;;;;;;;;;;;;;;;7.57;51.63;97455.88;4218675;28;5679;-74
2022/03/09 12:57:40;;;;;;;;;;;;;;;7.70;51.25;97450.19;4219687;27;5724;-74
2022/03/09 12:59:56;;;;;;;;;;;;;;;7.74;51.30;97450.69;4220820;28;5724;-73
2022/03/09 13:01:58;;;;;;;;;;;;;;;7.82;50.56;97448.09;4219281;28;5676;-69
2022/03/09 13:04:03;;;;;;;;;;;;;;;7.78;50.85;97437.03;4219013;28;5747;-72
2022/03/09 13:06:25;;;;;;;;;;;;;;;7.83;50.96;97444.47;4217625;28;5735;-73
2022/03/09 13:08:36;;;;;;;;;;;;;;;7.80;51.84;97442.13;4218319;28;5668;-70
2022/03/09 13:10:49;;;;;;;;;;;;;;;7.83;51.16;97439.22;4226721;28;5910;-76
2022/03/09 13:12:58;;;;;;;;;;;;;;;7.87;50.80;97436.09;4232059;28;5750;-76
2022/03/09 13:15:01;;;;;;;;;;;;;;;7.96;51.38;97442.19;4234812;28;5739;-76
2022/03/09 13:17:10;;;;;;;;;;;;;;;7.99;51.06;97438.41;4230023;28;5691;-76
2022/03/09 13:19:13;;;;;;;;;;;;;;;7.88;51.41;97436.91;4220833;28;5675;-76
2022/03/09 13:21:16;;;;;;;;;;;;;;;7.89;50.92;97434.13;4219248;28;5758;-76
2022/03/09 13:23:35;;;;;;;;;;;;;;;7.95;51.16;97432.66;4217483;28;5683;-77
2022/03/09 13:25:37;;;;;;;;;;;;;;;7.98;51.06;97426.25;4213521;28;5687;-77
2022/03/09 13:27:42;;;;;;;;;;;;;;;7.99;51.07;97418.19;4216976;28;5786;-76
2022/03/09 13:29:45;;;;;;;;;;;;;;;7.99;51.06;97417.34;4210552;27;5789;-76
2022/03/09 13:31:49;;;;;;;;;;;;;;;8.14;51.54;97421.81;4205332;28;5712;-77
2022/03/09 13:34:14;;;;;;;;;;;;;;;8.21;51.09;97411.47;4202495;28;5693;-76
2022/03/09 13:36:18;;;;;;;;;;;;;;;8.21;51.01;97410.66;4201664;28;5763;-76
2022/03/09 13:38:25;;;;;;;;;;;;;;;8.20;50.19;97406.38;4201318;28;5969;-76
2022/03/09 13:40:28;;;;;;;;;;;;;;;8.24;50.96;97410.31;4201737;28;5696;-76
2022/03/09 13:42:34;;;;;;;;;;;;;;;8.16;49.79;97404.06;4201723;28;5708;-76
2022/03/09 13:44:36;;;;;;;;;;;;;;;8.27;50.36;97394.16;4201474;28;5791;-76
2022/03/09 13:46:38;;;;;;;;;;;;;;;8.28;50.39;97395.84;4201326;28;5696;-76
2022/03/09 13:48:40;;;;;;;;;;;;;;;8.34;50.53;97403.06;4200813;28;5799;-76
2022/03/09 13:50:48;;;;;;;;;;;;;;;8.41;49.81;97393.56;4214752;28;5679;-76
2022/03/09 13:52:53;;;;;;;;;;;;;;;8.36;49.97;97403.75;4201351;28;5756;-76
2022/03/09 13:54:55;;;;;;;;;;;;;;;8.39;50.25;97390.28;4199666;28;6476;-76
2022/03/09 13:57:02;;;;;;;;;;;;;;;8.33;51.37;97388.25;4204720;28;5768;-76
2022/03/09 13:59:08;;;;;;;;;;;;;;;8.39;51.40;97390.28;4222717;28;5085;-76
2022/03/09 14:01:12;;;;;;;;;;;;;;;8.47;51.71;97385.00;4217744;28;7752;-76
2022/03/09 14:03:17;;;;;;;;;;;;;;;8.51;51.79;97385.50;4217507;28;6372;-75
2022/03/09 14:05:31;;;;;;;;;;;;;;;8.51;51.56;97375.78;4217632;28;5847;-76
2022/03/09 14:07:38;;;;;;;;;;;;;;;8.57;52.19;97380.38;4217557;28;5821;-77
2022/03/09 14:09:40;;;;;;;;;;;;;;;8.63;51.65;97374.44;4217795;28;5793;-76
2022/03/09 14:11:44;;;;;;;;;;;;;;;8.72;51.63;97378.72;4216198;28;5679;-76
2022/03/09 14:14:04;;;;;;;;;;;;;;;8.81;51.29;97371.59;4217621;28;6305;-77
2022/03/09 14:16:06;;;;;;;;;;;;;;;8.86;51.49;97376.41;4217509;28;5862;-77
2022/03/09 14:18:08;;;;;;;;;;;;;;;8.92;51.10;97368.63;4217389;28;5692;-76
2022/03/09 14:20:12;;;;;;;;;;;;;;;8.96;50.77;97369.13;4217721;28;6361;-76
2022/03/09 14:22:14;;;;;;;;;;;;;;;8.90;50.78;97372.41;4217322;28;5679;-76
2022/03/09 14:24:16;;;;;;;;;;;;;;;8.85;51.15;97369.47;4217531;28;6562;-76
2022/03/09 14:26:18;;;;;;;;;;;;;;;8.83;51.11;97360.88;4217473;28;6455;-76
2022/03/09 14:28:19;;;;;;;;;;;;;;;8.90;51.07;97369.78;4217488;28;5098;-77
2022/03/09 14:30:26;;;;;;;;;;;;;;;8.89;51.27;97365.50;4217780;28;5786;-77
2022/03/09 14:32:28;;;;;;;;;;;;;;;8.91;51.25;97371.44;4214850;28;5805;-77
2022/03/09 14:34:30;;;;;;;;;;;;;;;8.96;51.51;97366.47;4214544;28;5789;-84
2022/03/09 14:36:33;;;;;;;;;;;;;;;8.93;50.78;97375.53;4213548;28;5744;-75
2022/03/09 14:38:40;;;;;;;;;;;;;;;8.94;50.76;97365.81;4215078;28;5671;-79
2022/03/09 14:40:41;;;;;;;;;;;;;;;8.95;50.98;97368.31;4214810;28;6405;-73
2022/03/09 14:42:43;;;;;;;;;;;;;;;9.01;51.31;97364.16;4206655;28;5676;-73
2022/03/09 14:44:45;;;;;;;;;;;;;;;9.10;51.25;97367.59;4209382;28;5878;-74
2022/03/09 14:46:48;;;;;;;;;;;;;;;9.15;50.77;97363.44;4215351;28;5829;-72
2022/03/09 14:48:50;;;;;;;;;;;;;;;9.13;50.99;97362.78;4210032;28;5755;-72
2022/03/09 14:50:52;;;;;;;;;;;;;;;9.16;51.05;97361.63;4207793;28;5682;-72
2022/03/09 14:52:54;;;;;;;;;;;;;;;9.23;50.94;97359.97;4205496;28;5120;-74
2022/03/09 14:54:56;;;;;;;;;;;;;;;9.19;50.89;97353.38;4211563;28;5831;-74
2022/03/09 14:56:57;;;;;;;;;;;;;;;9.24;50.83;97354.50;4208636;28;5731;-73
2022/03/09 14:58:59;;;;;;;;;;;;;;;9.25;50.32;97358.78;4194110;28;5856;-68
2022/03/09 15:01:01;;;;;;;;;;;;;;;9.23;50.57;97350.22;4183107;28;5730;-72
2022/03/09 15:03:04;;;;;;;;;;;;;;;9.14;50.02;97345.97;4155963;28;5756;-72
2022/03/09 15:05:06;;;;;;;;;;;;;;;9.05;50.25;97347.81;4170473;28;5743;-75
2022/03/09 15:07:08;;;;;;;;;;;;;;;9.18;50.52;97347.28;4178424;28;5714;-80
2022/03/09 15:09:10;;;;;;;;;;;;;;;9.23;50.91;97342.31;4177993;28;5826;-76
2022/03/09 15:11:11;;;;;;;;;;;;;;;9.27;51.03;97346.25;4172760;28;5862;-80
2022/03/09 15:13:13;;;;;;;;;;;;;;;9.33;51.08;97355.31;4193323;28;5697;-79
2022/03/09 15:15:16;;;;;;;;;;;;;;;9.35;50.67;97348.03;4182107;28;5722;-74
2022/03/09 15:17:18;;;;;;;;;;;;;;;9.37;51.00;97350.50;4171606;28;5954;-75
2022/03/09 15:19:24;;;;;;;;;;;;;;;9.31;51.25;97344.94;4175996;28;5814;-69
2022/03/09 15:21:26;;;;;;;;;;;;;;;9.33;51.47;97350.03;4177714;28;5730;-82
2022/03/09 15:23:27;;;;;;;;;;;;;;;9.36;51.07;97352.31;4172275;28;5954;-69
2022/03/09 15:25:30;;;;;;;;;;;;;;;9.40;51.57;97353.63;4176016;28;5813;-76
2022/03/09 15:27:33;;;;;;;;;;;;;;;9.42;51.49;97354.28;4175008;28;5726;-76
2022/03/09 15:29:34;;;;;;;;;;;;;;;9.40;51.49;97352.78;4173632;28;5722;-82
2022/03/09 15:31:37;;;;;;;;;;;;;;;9.36;52.00;97348.84;4181688;28;5751;-83
2022/03/09 15:33:38;;;;;;;;;;;;;;;9.29;52.40;97354.84;4182120;28;5973;-82
2022/03/09 15:35:41;;;;;;;;;;;;;;;9.30;52.79;97353.84;4209486;28;5786;-81
2022/03/09 15:37:50;;;;;;;;;;;;;;;9.25;53.54;97357.97;4198190;28;5725;-83
2022/03/09 15:39:55;;;;;;;;;;;;;;;9.36;53.53;97349.69;4204433;28;5689;-82
2022/03/09 15:41:57;;;;;;;;;;;;;;;9.36;53.98;97352.31;4204565;28;5788;-80
2022/03/09 15:43:58;;;;;;;;;;;;;;;9.36;54.50;97356.78;4185922;28;5850;-81
2022/03/09 15:46:00;;;;;;;;;;;;;;;9.32;54.64;97354.50;4170678;28;5830;-82
2022/03/09 15:48:04;;;;;;;;;;;;;;;9.24;55.50;97356.31;4172964;28;5837;-81
2022/03/09 15:50:08;;;;;;;;;;;;;;;9.19;55.58;97354.22;4181279;28;5091;-81
2022/03/09 15:52:11;;;;;;;;;;;;;;;9.21;55.37;97361.94;4179030;28;5943;-82
2022/03/09 15:54:12;;;;;;;;;;;;;;;9.19;55.54;97358.66;4167480;28;5946;-81
2022/03/09 15:56:14;;;;;;;;;;;;;;;9.27;56.24;97367.34;4184520;28;5706;-81
2022/03/09 15:58:17;;;;;;;;;;;;;;;9.09;57.06;97364.13;4204355;28;5688;-82
2022/03/09 16:00:19;;;;;;;;;;;;;;;9.26;56.07;97364.88;4212991;28;5774;-81
2022/03/09 16:02:20;;;;;;;;;;;;;;;9.28;55.35;97366.34;4209005;28;5783;-82
2022/03/09 16:04:22;;;;;;;;;;;;;;;9.26;56.16;97368.34;4209817;28;5763;-79
2022/03/09 16:06:24;;;;;;;;;;;;;;;9.32;55.47;97364.22;4219196;28;5675;-83
2022/03/09 16:08:26;;;;;;;;;;;;;;;9.32;55.58;97370.31;4214264;28;5912;-78
2022/03/09 16:10:28;;;;;;;;;;;;;;;9.13;56.83;97365.44;4216333;28;5750;-79
2022/03/09 16:12:29;;;;;;;;;;;;;;;9.23;56.60;97365.22;4215490;28;5731;-74
2022/03/09 16:14:31;;;;;;;;;;;;;;;9.20;57.39;97365.59;4211391;28;5675;-75
2022/03/09 16:16:35;;;;;;;;;;;;;;;9.19;57.41;97364.75;4217239;28;5684;-80
2022/03/09 16:18:39;;;;;;;;;;;;;;;9.20;57.57;97361.13;4216138;28;5675;-71
2022/03/09 16:20:42;;;;;;;;;;;;;;;9.18;57.22;97365.75;4218402;28;5659;-80
2022/03/09 16:22:44;;;;;;;;;;;;;;;9.11;57.59;97362.16;4216971;28;5676;-75
2022/03/09 16:24:49;;;;;;;;;;;;;;;9.07;57.88;97360.84;4216846;28;5826;-75
2022/03/09 16:26:51;;;;;;;;;;;;;;;8.86;58.75;97363.22;4218069;28;6521;-83
2022/03/09 16:28:53;;;;;;;;;;;;;;;8.97;58.47;97365.50;4215446;28;5875;-81